Time;durP1;ratioP1;P1;durP2;ratioP2;P2;SDS_P1;SDS_P2;PMS_P1;PMS_P2;Temp;Humidity;BMP_temperature;BMP_pressure;BME280_temperature;BME280_humidity;BME280_pressure;Samples;Min_cycle;Max_cycle;Signal;HPM_P1;HPM_P2
2022/01/27 00:00:43;;;;;;;9.70;7.47;;;;;;;;;;5101475;27;20195;-63
2022/01/27 00:03:26;;;;;;;9.75;8.32;;;;;;;;;;5103277;27;20202;-64
2022/01/27 00:05:58;;;;;;;9.38;7.85;;;;;;;;;;5116044;27;20226;-63
2022/01/27 00:08:29;;;;;;;8.95;7.88;;;;;;;;;;5141066;27;20218;-64
2022/01/27 00:10:59;;;;;;;9.60;8.32;;;;;;;;;;5137768;27;20225;-63
2022/01/27 00:13:31;;;;;;;9.70;8.35;;;;;;;;;;5139633;27;20285;-63
2022/01/27 00:16:15;;;;;;;10.38;8.13;;;;;;;;;;5140825;27;20297;-63
2022/01/27 00:18:43;;;;;;;8.90;7.90;;;;;;;;;;5131010;27;20204;-63
2022/01/27 00:21:12;;;;;;;9.25;7.45;;;;;;;;;;5108722;27;20195;-63
2022/01/27 00:23:41;;;;;;;9.70;7.63;;;;;;;;;;5141462;27;20213;-63
2022/01/27 00:26:08;;;;;;;9.70;8.13;;;;;;;;;;5101465;28;20576;-63
2022/01/27 00:28:36;;;;;;;9.07;7.85;;;;;;;;;;5100632;28;20223;-63
2022/01/27 00:31:03;;;;;;;9.35;7.72;;;;;;;;;;5119018;27;20506;-63
2022/01/27 00:33:30;;;;;;;9.93;8.25;;;;;;;;;;5100253;28;20210;-63
2022/01/27 00:35:58;;;;;;;9.70;7.95;;;;;;;;;;5109058;27;20194;-64
2022/01/27 00:38:27;;;;;;;8.80;7.18;;;;;;;;;;5141023;27;20198;-63
2022/01/27 00:40:54;;;;;;;9.80;8.02;;;;;;;;;;5105977;27;20207;-63
2022/01/27 00:43:21;;;;;;;9.38;7.68;;;;;;;;;;5100143;28;20235;-63
2022/01/27 00:45:49;;;;;;;9.73;8.10;;;;;;;;;;5099899;28;20200;-63
2022/01/27 00:48:17;;;;;;;9.05;7.47;;;;;;;;;;5099834;28;20204;-68
2022/01/27 00:50:47;;;;;;;10.25;7.50;;;;;;;;;;5104874;27;20208;-63
2022/01/27 00:53:28;;;;;;;8.90;7.50;;;;;;;;;;5135469;27;20264;-63
2022/01/27 00:56:05;;;;;;;9.23;7.72;;;;;;;;;;5099845;28;20563;-63
2022/01/27 00:58:45;;;;;;;8.80;7.45;;;;;;;;;;5099894;28;20228;-64
2022/01/27 01:01:16;;;;;;;9.73;7.68;;;;;;;;;;5133644;27;20215;-63
2022/01/27 01:03:47;;;;;;;9.77;7.97;;;;;;;;;;5099561;28;20211;-63
2022/01/27 01:06:24;;;;;;;8.60;6.88;;;;;;;;;;5099622;28;20470;-63
2022/01/27 01:17:14;;;;;;;9.55;7.35;;;;;;;;;;5131788;27;20482;-63
2022/01/27 01:19:56;;;;;;;9.23;7.30;;;;;;;;;;5099963;28;20191;-63
2022/01/27 01:30:51;;;;;;;9.10;7.30;;;;;;;;;;5118981;27;20334;-63
2022/01/27 01:33:26;;;;;;;9.20;7.40;;;;;;;;;;5098739;28;20532;-62
2022/01/27 01:36:04;;;;;;;7.75;6.70;;;;;;;;;;5107052;27;20205;-62
2022/01/27 01:38:32;;;;;;;9.02;7.40;;;;;;;;;;5140180;27;20229;-63
2022/01/27 01:40:59;;;;;;;7.93;6.60;;;;;;;;;;5105919;27;20207;-63
2022/01/27 01:43:29;;;;;;;9.80;7.57;;;;;;;;;;5106161;27;20226;-63
2022/01/27 01:45:56;;;;;;;8.68;6.57;;;;;;;;;;5139347;27;20198;-63
2022/01/27 01:48:23;;;;;;;8.30;6.78;;;;;;;;;;5139951;27;20581;-63
2022/01/27 01:50:51;;;;;;;7.65;6.60;;;;;;;;;;5136092;27;20495;-63
2022/01/27 01:53:18;;;;;;;8.38;6.75;;;;;;;;;;5138515;27;20210;-63
2022/01/27 01:55:46;;;;;;;8.10;6.63;;;;;;;;;;5127339;27;20204;-63
2022/01/27 01:58:13;;;;;;;8.52;6.88;;;;;;;;;;5134284;27;20210;-63
2022/01/27 02:00:42;;;;;;;7.55;6.50;;;;;;;;;;5136938;27;20221;-64
2022/01/27 02:03:09;;;;;;;7.10;6.22;;;;;;;;;;5138498;27;20490;-63
2022/01/27 02:05:44;;;;;;;8.25;6.45;;;;;;;;;;5139248;27;20194;-63
2022/01/27 02:19:17;;;;;;;6.45;5.47;;;;;;;;;;5130395;27;20209;-63
2022/01/27 02:21:47;;;;;;;7.13;6.30;;;;;;;;;;5098647;28;20199;-62
2022/01/27 02:24:15;;;;;;;7.45;6.20;;;;;;;;;;5098821;28;20480;-63
2022/01/27 02:26:42;;;;;;;6.97;5.65;;;;;;;;;;5098785;28;20215;-63
2022/01/27 02:29:10;;;;;;;7.35;5.80;;;;;;;;;;5136427;27;20225;-63
2022/01/27 02:31:38;;;;;;;6.57;5.85;;;;;;;;;;5136179;27;20497;-63
2022/01/27 02:34:06;;;;;;;7.07;5.78;;;;;;;;;;5139223;27;20213;-63
2022/01/27 02:36:34;;;;;;;6.43;5.55;;;;;;;;;;5118622;27;20610;-63
2022/01/27 02:39:05;;;;;;;6.78;5.70;;;;;;;;;;5098220;28;20272;-63
2022/01/27 02:41:37;;;;;;;7.13;5.65;;;;;;;;;;5137567;27;20532;-63
2022/01/27 02:44:05;;;;;;;7.22;5.72;;;;;;;;;;5138985;27;20206;-63
2022/01/27 02:46:36;;;;;;;6.47;5.40;;;;;;;;;;5138354;27;20199;-63
2022/01/27 02:49:04;;;;;;;5.78;5.18;;;;;;;;;;5135759;27;20225;-63
2022/01/27 02:51:31;;;;;;;6.45;5.60;;;;;;;;;;5132219;27;20202;-63
2022/01/27 02:53:58;;;;;;;6.00;5.35;;;;;;;;;;5098024;28;20230;-63
2022/01/27 02:56:27;;;;;;;6.88;5.70;;;;;;;;;;5123048;27;20209;-63
2022/01/27 02:58:55;;;;;;;6.43;5.32;;;;;;;;;;5119255;27;20200;-63
2022/01/27 03:01:22;;;;;;;5.60;5.00;;;;;;;;;;5132857;27;20241;-62
2022/01/27 03:03:50;;;;;;;6.65;5.38;;;;;;;;;;5138082;27;20202;-63
2022/01/27 03:06:17;;;;;;;5.35;4.82;;;;;;;;;;5138050;27;20209;-63
2022/01/27 03:08:44;;;;;;;5.40;4.80;;;;;;;;;;5138022;27;20213;-62
2022/01/27 03:11:14;;;;;;;5.82;4.93;;;;;;;;;;5104638;27;20359;-62
2022/01/27 03:13:43;;;;;;;5.28;4.50;;;;;;;;;;5097667;28;20464;-62
2022/01/27 03:16:11;;;;;;;5.28;4.32;;;;;;;;;;5124862;27;20208;-62
2022/01/27 03:18:38;;;;;;;7.10;5.18;;;;;;;;;;5134748;27;20464;-62
2022/01/27 03:21:05;;;;;;;4.78;4.28;;;;;;;;;;5106539;27;20202;-63
2022/01/27 03:23:35;;;;;;;6.30;5.18;;;;;;;;;;5097442;28;20314;-63
2022/01/27 03:26:04;;;;;;;5.43;4.68;;;;;;;;;;5097540;28;20200;-62
2022/01/27 03:28:31;;;;;;;5.72;5.05;;;;;;;;;;5097420;28;20226;-63
2022/01/27 03:31:00;;;;;;;5.43;4.50;;;;;;;;;;5111660;28;20317;-63
2022/01/27 03:33:27;;;;;;;5.53;4.60;;;;;;;;;;5097281;28;20484;-63
2022/01/27 03:35:54;;;;;;;4.80;4.30;;;;;;;;;;5107062;28;20218;-63
2022/01/27 03:38:22;;;;;;;5.57;4.75;;;;;;;;;;5099915;28;20207;-63
2022/01/27 03:40:50;;;;;;;4.93;4.43;;;;;;;;;;5122688;28;20198;-63
2022/01/27 03:43:17;;;;;;;5.13;4.50;;;;;;;;;;5104102;28;20231;-63
2022/01/27 03:45:44;;;;;;;5.05;4.55;;;;;;;;;;5096732;28;20204;-63
2022/01/27 03:48:13;;;;;;;5.38;4.47;;;;;;;;;;5099659;28;20195;-63
2022/01/27 03:50:40;;;;;;;5.18;4.65;;;;;;;;;;5118919;28;20209;-63
2022/01/27 03:53:08;;;;;;;4.63;4.15;;;;;;;;;;5136882;28;20198;-63
2022/01/27 03:55:35;;;;;;;4.68;4.05;;;;;;;;;;5137353;28;20573;-63
2022/01/27 03:58:03;;;;;;;4.95;4.45;;;;;;;;;;5137905;28;20202;-63
2022/01/27 04:00:30;;;;;;;4.60;4.18;;;;;;;;;;5118420;28;20207;-63
2022/01/27 04:03:02;;;;;;;4.65;4.13;;;;;;;;;;5113152;28;20491;-63
2022/01/27 04:05:36;;;;;;;4.85;4.32;;;;;;;;;;5096042;28;20580;-63
2022/01/27 04:08:04;;;;;;;4.75;4.10;;;;;;;;;;5096645;28;20597;-63
2022/01/27 04:10:31;;;;;;;4.68;4.18;;;;;;;;;;5096819;28;20226;-62
2022/01/27 04:12:59;;;;;;;4.70;4.20;;;;;;;;;;5096283;28;20200;-63
2022/01/27 04:15:26;;;;;;;5.57;4.60;;;;;;;;;;5096769;28;20222;-63
2022/01/27 04:17:53;;;;;;;5.68;4.60;;;;;;;;;;5096700;28;20215;-63
2022/01/27 04:20:21;;;;;;;4.15;3.70;;;;;;;;;;5113600;28;20282;-63
2022/01/27 04:22:50;;;;;;;4.32;3.92;;;;;;;;;;5137365;28;20221;-63
2022/01/27 04:25:18;;;;;;;4.35;3.95;;;;;;;;;;5136462;28;20466;-63
2022/01/27 04:27:49;;;;;;;4.45;4.05;;;;;;;;;;5139576;27;20209;-63
2022/01/27 04:30:18;;;;;;;4.35;3.95;;;;;;;;;;5137186;27;20238;-62
2022/01/27 04:32:49;;;;;;;4.93;4.00;;;;;;;;;;5117125;27;20536;-63
2022/01/27 04:35:19;;;;;;;4.68;4.18;;;;;;;;;;5104825;27;20560;-63
2022/01/27 04:37:59;;;;;;;4.10;3.63;;;;;;;;;;5140166;27;20234;-62
2022/01/27 04:40:33;;;;;;;4.10;3.70;;;;;;;;;;5124716;27;20191;-63
2022/01/27 04:43:07;;;;;;;4.85;4.00;;;;;;;;;;5100030;28;20665;-63
2022/01/27 04:45:42;;;;;;;4.55;4.07;;;;;;;;;;5100351;28;20278;-63
2022/01/27 04:48:13;;;;;;;5.03;4.28;;;;;;;;;;5102778;27;20229;-63
2022/01/27 04:50:41;;;;;;;4.57;4.07;;;;;;;;;;5119636;27;20300;-63
2022/01/27 04:53:14;;;;;;;4.50;4.10;;;;;;;;;;5140322;27;20638;-63
2022/01/27 04:55:43;;;;;;;4.30;3.88;;;;;;;;;;5120930;27;20516;-64
2022/01/27 04:58:14;;;;;;;4.60;4.07;;;;;;;;;;5100247;28;20490;-63
2022/01/27 05:00:43;;;;;;;4.40;4.00;;;;;;;;;;5119074;27;20201;-63
2022/01/27 05:03:19;;;;;;;4.82;4.32;;;;;;;;;;5137726;27;20244;-63
2022/01/27 05:05:46;;;;;;;4.25;3.83;;;;;;;;;;5099644;28;20268;-63
2022/01/27 05:08:18;;;;;;;4.28;3.75;;;;;;;;;;5099687;27;20200;-63
2022/01/27 05:10:56;;;;;;;4.35;3.95;;;;;;;;;;5119906;27;20625;-63
2022/01/27 05:13:26;;;;;;;4.10;3.70;;;;;;;;;;5139829;27;20262;-63
2022/01/27 05:15:54;;;;;;;5.35;4.15;;;;;;;;;;5140667;27;20210;-63
2022/01/27 05:18:21;;;;;;;4.90;4.40;;;;;;;;;;5136758;27;20205;-63
2022/01/27 05:20:49;;;;;;;4.70;4.20;;;;;;;;;;5119613;27;20195;-63
2022/01/27 05:23:16;;;;;;;4.45;4.03;;;;;;;;;;5099161;27;20211;-62
2022/01/27 05:25:43;;;;;;;5.30;4.25;;;;;;;;;;5099406;28;20393;-62
2022/01/27 05:28:12;;;;;;;4.47;4.07;;;;;;;;;;5099548;28;20200;-63
2022/01/27 05:30:40;;;;;;;4.68;4.10;;;;;;;;;;5114771;27;20218;-63
2022/01/27 05:33:09;;;;;;;4.30;3.85;;;;;;;;;;5139218;27;20494;-63
2022/01/27 05:35:37;;;;;;;5.07;4.30;;;;;;;;;;5109770;27;20488;-63
2022/01/27 05:38:04;;;;;;;4.70;4.25;;;;;;;;;;5126327;27;20263;-63
2022/01/27 05:40:32;;;;;;;4.03;3.63;;;;;;;;;;5123748;27;20192;-63
2022/01/27 05:42:59;;;;;;;4.80;4.30;;;;;;;;;;5097947;27;20231;-63
2022/01/27 05:45:28;;;;;;;4.68;4.05;;;;;;;;;;5098319;28;20208;-63
2022/01/27 05:47:55;;;;;;;4.82;4.20;;;;;;;;;;5115148;27;20198;-63
2022/01/27 05:50:23;;;;;;;4.22;3.72;;;;;;;;;;5126010;27;20216;-63
2022/01/27 05:52:50;;;;;;;4.45;4.05;;;;;;;;;;5098473;27;20200;-63
2022/01/27 05:55:17;;;;;;;4.80;4.00;;;;;;;;;;5098246;28;20203;-63
2022/01/27 05:57:45;;;;;;;4.43;4.03;;;;;;;;;;5117598;27;20210;-63
2022/01/27 06:00:12;;;;;;;5.03;4.53;;;;;;;;;;5100245;27;20199;-63
2022/01/27 06:02:41;;;;;;;4.30;3.90;;;;;;;;;;5101306;28;20214;-63
2022/01/27 06:05:09;;;;;;;5.18;4.68;;;;;;;;;;5117362;28;20210;-63
2022/01/27 06:07:37;;;;;;;4.95;4.45;;;;;;;;;;5116092;28;20222;-63
2022/01/27 06:10:04;;;;;;;4.28;3.75;;;;;;;;;;5116889;28;20215;-63
2022/01/27 06:12:31;;;;;;;4.63;3.83;;;;;;;;;;5109411;27;20195;-63
2022/01/27 06:14:59;;;;;;;4.47;4.07;;;;;;;;;;5096292;28;20199;-63
2022/01/27 06:17:26;;;;;;;4.40;4.00;;;;;;;;;;5098457;27;20207;-64
2022/01/27 06:19:55;;;;;;;4.00;3.60;;;;;;;;;;5115208;27;20261;-63
2022/01/27 06:22:23;;;;;;;4.78;4.28;;;;;;;;;;5095951;28;20231;-63
2022/01/27 06:24:51;;;;;;;4.50;4.10;;;;;;;;;;5102397;27;20615;-63
2022/01/27 06:27:19;;;;;;;4.70;4.30;;;;;;;;;;5123603;27;20196;-63
2022/01/27 06:29:47;;;;;;;4.60;4.20;;;;;;;;;;5133988;27;20598;-63
2022/01/27 06:32:14;;;;;;;4.80;4.20;;;;;;;;;;5135325;27;20194;-63
2022/01/27 06:34:41;;;;;;;5.18;4.63;;;;;;;;;;5113488;27;20203;-63
2022/01/27 06:37:10;;;;;;;4.70;4.30;;;;;;;;;;5115323;27;20666;-63
2022/01/27 06:39:37;;;;;;;4.47;4.00;;;;;;;;;;5100259;27;20744;-63
2022/01/27 06:42:07;;;;;;;4.45;4.05;;;;;;;;;;5112278;27;20214;-63
2022/01/27 06:44:34;;;;;;;4.72;4.22;;;;;;;;;;5136621;27;20270;-63
2022/01/27 06:47:02;;;;;;;4.20;3.80;;;;;;;;;;5124833;27;20192;-63
2022/01/27 06:49:29;;;;;;;4.75;4.32;;;;;;;;;;5128405;27;20191;-63
2022/01/27 06:51:57;;;;;;;5.15;4.50;;;;;;;;;;5135442;27;20229;-63
2022/01/27 06:54:25;;;;;;;5.07;4.57;;;;;;;;;;5136538;27;20229;-63
2022/01/27 06:56:53;;;;;;;4.57;4.18;;;;;;;;;;5135767;27;20198;-63
2022/01/27 06:59:20;;;;;;;4.60;4.15;;;;;;;;;;5106098;27;20701;-63
2022/01/27 07:01:48;;;;;;;4.93;4.00;;;;;;;;;;5105306;28;20194;-63
2022/01/27 07:04:15;;;;;;;4.60;4.13;;;;;;;;;;5137033;27;20485;-63
2022/01/27 07:06:42;;;;;;;4.47;4.07;;;;;;;;;;5128931;27;20196;-63
2022/01/27 07:09:10;;;;;;;4.70;4.30;;;;;;;;;;5124399;27;20612;-63
2022/01/27 07:11:38;;;;;;;4.95;4.45;;;;;;;;;;5135332;27;20222;-63
2022/01/27 07:14:06;;;;;;;4.63;4.22;;;;;;;;;;5095920;28;20203;-63
2022/01/27 07:16:34;;;;;;;4.85;4.45;;;;;;;;;;5099134;27;20213;-63
2022/01/27 07:19:01;;;;;;;4.65;4.25;;;;;;;;;;5112539;27;20200;-67
2022/01/27 07:21:29;;;;;;;4.80;4.40;;;;;;;;;;5098877;28;20207;-63
2022/01/27 07:23:56;;;;;;;4.50;4.10;;;;;;;;;;5136184;27;20209;-63
2022/01/27 07:26:25;;;;;;;4.50;4.10;;;;;;;;;;5135633;27;20203;-63
2022/01/27 07:28:54;;;;;;;5.03;4.18;;;;;;;;;;5114896;27;20200;-63
2022/01/27 07:31:21;;;;;;;5.15;4.65;;;;;;;;;;5094744;28;20220;-63
2022/01/27 07:33:49;;;;;;;4.75;4.30;;;;;;;;;;5095058;28;20207;-63
2022/01/27 07:36:17;;;;;;;4.97;4.47;;;;;;;;;;5109702;28;20186;-65
2022/01/27 07:38:44;;;;;;;4.82;4.43;;;;;;;;;;5118305;28;20492;-64
2022/01/27 07:41:11;;;;;;;5.25;4.60;;;;;;;;;;5096320;28;20277;-63
2022/01/27 07:43:40;;;;;;;4.75;4.28;;;;;;;;;;5135477;28;20512;-63
2022/01/27 07:46:11;;;;;;;5.47;4.97;;;;;;;;;;5136032;28;20283;-63
2022/01/27 07:48:38;;;;;;;5.05;4.55;;;;;;;;;;5121985;28;20196;-63
2022/01/27 07:51:07;;;;;;;5.32;4.82;;;;;;;;;;5135551;28;20226;-63
2022/01/27 07:53:34;;;;;;;5.10;4.60;;;;;;;;;;5136034;28;20202;-63
2022/01/27 07:56:02;;;;;;;5.32;4.82;;;;;;;;;;5136166;28;20611;-63
2022/01/27 07:58:30;;;;;;;5.20;4.70;;;;;;;;;;5122218;28;20213;-63
2022/01/27 08:00:57;;;;;;;5.07;4.57;;;;;;;;;;5137231;27;20194;-63
2022/01/27 08:03:26;;;;;;;5.68;4.97;;;;;;;;;;5139784;27;20672;-63
2022/01/27 08:05:53;;;;;;;5.97;5.07;;;;;;;;;;5140000;27;20201;-63
2022/01/27 08:08:21;;;;;;;5.90;4.80;;;;;;;;;;5125080;27;20196;-63
2022/01/27 08:10:48;;;;;;;5.72;5.10;;;;;;;;;;5116193;27;20220;-63
2022/01/27 08:13:16;;;;;;;5.70;5.07;;;;;;;;;;5116822;27;20288;-63
2022/01/27 08:15:43;;;;;;;5.50;4.93;;;;;;;;;;5140670;27;20214;-63
2022/01/27 08:18:11;;;;;;;5.20;4.57;;;;;;;;;;5117661;27;20500;-63
2022/01/27 08:20:40;;;;;;;5.55;5.00;;;;;;;;;;5098273;27;20231;-63
2022/01/27 08:23:08;;;;;;;5.22;4.72;;;;;;;;;;5115178;28;20285;-63
2022/01/27 08:25:36;;;;;;;5.32;4.75;;;;;;;;;;5098941;28;20609;-63
2022/01/27 08:28:06;;;;;;;5.95;5.20;;;;;;;;;;5126542;27;20221;-64
2022/01/27 08:30:41;;;;;;;5.40;4.90;;;;;;;;;;5098923;28;20226;-63
2022/01/27 08:33:14;;;;;;;5.30;4.80;;;;;;;;;;5098871;27;20614;-62
2022/01/27 08:35:43;;;;;;;5.20;4.68;;;;;;;;;;5133279;27;20198;-63
2022/01/27 08:38:10;;;;;;;5.80;5.20;;;;;;;;;;5109190;27;20199;-63
2022/01/27 08:40:38;;;;;;;6.28;5.28;;;;;;;;;;5135631;27;20198;-63
2022/01/27 08:43:07;;;;;;;5.80;5.20;;;;;;;;;;5125801;27;20522;-63
2022/01/27 08:45:35;;;;;;;5.90;5.30;;;;;;;;;;5139290;27;20210;-63
2022/01/27 08:48:02;;;;;;;5.90;5.30;;;;;;;;;;5131307;27;20206;-63
2022/01/27 08:50:29;;;;;;;5.60;5.10;;;;;;;;;;5097559;27;20310;-64
2022/01/27 08:52:59;;;;;;;5.25;4.75;;;;;;;;;;5128433;27;20521;-63
2022/01/27 08:55:26;;;;;;;6.43;5.00;;;;;;;;;;5138060;27;20205;-63
2022/01/27 08:57:54;;;;;;;5.60;5.03;;;;;;;;;;5137780;27;20190;-63
2022/01/27 09:00:21;;;;;;;5.13;4.63;;;;;;;;;;5097675;28;20203;-63
2022/01/27 09:02:48;;;;;;;6.45;5.40;;;;;;;;;;5098709;28;20198;-63
2022/01/27 09:05:16;;;;;;;5.80;5.20;;;;;;;;;;5097985;28;20226;-63
2022/01/27 09:07:43;;;;;;;5.47;4.70;;;;;;;;;;5100154;27;20196;-63
2022/01/27 09:10:12;;;;;;;5.47;4.97;;;;;;;;;;5134112;27;20600;-64
2022/01/27 09:12:39;;;;;;;6.13;4.63;;;;;;;;;;5137129;27;20636;-63
2022/01/27 09:15:07;;;;;;;5.18;4.68;;;;;;;;;;5137947;27;20210;-63
2022/01/27 09:17:39;;;;;;;5.45;4.88;;;;;;;;;;5135116;27;20230;-63
2022/01/27 09:20:09;;;;;;;6.00;5.18;;;;;;;;;;5101496;27;20200;-64
2022/01/27 09:22:36;;;;;;;5.90;4.90;;;;;;;;;;5096914;27;20188;-63
2022/01/27 09:25:10;;;;;;;5.90;5.40;;;;;;;;;;5097254;28;20619;-63
2022/01/27 09:27:42;;;;;;;5.80;5.20;;;;;;;;;;5097549;28;20298;-64
2022/01/27 09:30:10;;;;;;;5.75;5.15;;;;;;;;;;5134262;27;20276;-63
2022/01/27 09:32:37;;;;;;;5.88;5.07;;;;;;;;;;5112658;27;20216;-63
2022/01/27 09:35:05;;;;;;;5.45;4.95;;;;;;;;;;5133056;27;20604;-64
2022/01/27 09:37:32;;;;;;;5.68;5.10;;;;;;;;;;5112440;27;20580;-63
2022/01/27 09:40:00;;;;;;;5.47;4.93;;;;;;;;;;5130204;27;20198;-63
2022/01/27 09:42:30;;;;;;;6.10;5.50;;;;;;;;;;5136254;27;20522;-63
2022/01/27 09:45:02;;;;;;;5.40;4.90;;;;;;;;;;5104020;27;20257;-63
2022/01/27 09:47:32;;;;;;;6.20;5.20;;;;;;;;;;5098984;27;20587;-63
2022/01/27 09:50:09;;;;;;;6.53;5.35;;;;;;;;;;5128698;27;20206;-63
2022/01/27 09:52:36;;;;;;;5.93;5.32;;;;;;;;;;5131555;27;20811;-63
2022/01/27 09:55:04;;;;;;;5.60;5.10;;;;;;;;;;5096898;28;20764;-63
2022/01/27 09:57:31;;;;;;;5.95;5.35;;;;;;;;;;5121340;27;20650;-63
2022/01/27 10:00:01;;;;;;;5.85;5.25;;;;;;;;;;5103692;27;20200;-63
2022/01/27 10:02:28;;;;;;;5.57;5.07;;;;;;;;;;5095440;28;20203;-63
2022/01/27 10:04:57;;;;;;;6.85;5.22;;;;;;;;;;5096472;28;20208;-63
2022/01/27 10:07:26;;;;;;;5.55;4.93;;;;;;;;;;5115062;27;20647;-63
2022/01/27 10:10:01;;;;;;;6.35;5.30;;;;;;;;;;5100435;27;20247;-63
2022/01/27 10:12:30;;;;;;;5.75;5.10;;;;;;;;;;5095792;27;20226;-63
2022/01/27 10:14:59;;;;;;;6.35;4.90;;;;;;;;;;5121676;27;20270;-63
2022/01/27 10:17:30;;;;;;;5.28;4.63;;;;;;;;;;5134082;27;20208;-63
2022/01/27 10:19:58;;;;;;;5.15;4.65;;;;;;;;;;5105487;27;20581;-63
2022/01/27 10:22:25;;;;;;;5.35;4.80;;;;;;;;;;5095767;27;20232;-63
2022/01/27 10:25:08;;;;;;;6.18;5.07;;;;;;;;;;5094597;28;20214;-64
2022/01/27 10:27:47;;;;;;;4.93;4.45;;;;;;;;;;5098789;28;20200;-63
2022/01/27 10:33:17;;;;;;;5.78;4.93;;;;;;;;;;5135744;27;20218;-63
2022/01/27 10:35:44;;;;;;;6.07;4.65;;;;;;;;;;5136967;27;20302;-63
2022/01/27 10:38:13;;;;;;;7.32;6.47;;;;;;;;;;5105362;27;20204;-63
2022/01/27 10:40:42;;;;;;;8.93;7.60;;;;;;;;;;5112804;27;20202;-63
2022/01/27 10:43:13;;;;;;;7.35;6.57;;;;;;;;;;5135223;27;20229;-63
2022/01/27 10:45:59;;;;;;;7.72;6.57;;;;;;;;;;5102020;27;20203;-63
2022/01/27 10:48:32;;;;;;;6.55;5.85;;;;;;;;;;5116112;27;20585;-63
2022/01/27 10:51:04;;;;;;;7.57;6.35;;;;;;;;;;5136103;27;20289;-62
2022/01/27 10:53:43;;;;;;;7.55;6.30;;;;;;;;;;5135670;27;20218;-62
2022/01/27 10:56:15;;;;;;;6.80;5.85;;;;;;;;;;5135996;27;20242;-63
2022/01/27 10:58:44;;;;;;;8.70;6.20;;;;;;;;;;5127088;27;20188;-63
2022/01/27 11:01:12;;;;;;;5.95;5.10;;;;;;;;;;5098068;27;20292;-63
2022/01/27 11:03:50;;;;;;;7.25;6.47;;;;;;;;;;5125873;27;20203;-62
2022/01/27 11:06:17;;;;;;;6.18;5.57;;;;;;;;;;5112174;28;20206;-63
2022/01/27 11:08:44;;;;;;;6.40;5.75;;;;;;;;;;5105137;27;20687;-63
2022/01/27 11:11:13;;;;;;;6.43;5.75;;;;;;;;;;5108668;27;20213;-63
2022/01/27 11:13:40;;;;;;;7.05;5.65;;;;;;;;;;5094471;28;20196;-63
2022/01/27 11:16:13;;;;;;;6.75;5.47;;;;;;;;;;5101199;27;20199;-63
2022/01/27 11:18:44;;;;;;;7.53;5.90;;;;;;;;;;5110736;28;20290;-63
2022/01/27 11:21:24;;;;;;;6.68;5.68;;;;;;;;;;5105953;27;20235;-63
2022/01/27 11:24:06;;;;;;;6.10;5.38;;;;;;;;;;5134873;27;20233;-64
2022/01/27 11:26:37;;;;;;;9.20;5.50;;;;;;;;;;5129881;27;20198;-61
2022/01/27 11:29:05;;;;;;;8.02;5.53;;;;;;;;;;5100146;28;20210;-61
2022/01/27 11:31:39;;;;;;;9.90;5.90;;;;;;;;;;5099003;28;20206;-61
2022/01/27 11:34:09;;;;;;;8.23;5.40;;;;;;;;;;5096970;28;20207;-61
2022/01/27 11:36:38;;;;;;;7.18;5.55;;;;;;;;;;5125329;27;20195;-61
2022/01/27 11:39:09;;;;;;;8.30;5.88;;;;;;;;;;5094352;28;20499;-62
2022/01/27 11:41:40;;;;;;;8.82;5.13;;;;;;;;;;5107920;28;20234;-61
2022/01/27 11:44:41;;;;;;;9.18;5.78;;;;;;;;;;5114128;28;20298;-61
2022/01/27 11:47:19;;;;;;;6.97;4.78;;;;;;;;;;5013643;28;20205;-61
2022/01/27 11:49:56;;;;;;;6.68;5.13;;;;;;;;;;5115900;28;20202;-61
2022/01/27 11:52:26;;;;;;;7.10;4.85;;;;;;;;;;5118598;28;20230;-61
2022/01/27 11:54:54;;;;;;;8.10;4.90;;;;;;;;;;5093983;28;20268;-61
2022/01/27 11:57:36;;;;;;;7.20;5.05;;;;;;;;;;5093720;28;20288;-61
2022/01/27 12:00:11;;;;;;;8.57;5.15;;;;;;;;;;5124288;28;20194;-61
2022/01/27 12:02:56;;;;;;;7.25;4.53;;;;;;;;;;5126865;28;20190;-61
2022/01/27 12:05:26;;;;;;;10.77;7.97;;;;;;;;;;5099238;28;20188;-62
2022/01/27 12:08:12;;;;;;;13.57;9.35;;;;;;;;;;5104897;28;20506;-61
2022/01/27 12:10:45;;;;;;;12.80;8.32;;;;;;;;;;5093491;28;20253;-61
2022/01/27 12:13:28;;;;;;;12.30;10.05;;;;;;;;;;5093171;28;20230;-61
2022/01/27 12:16:23;;;;;;;13.32;9.35;;;;;;;;;;5109528;28;20194;-61
2022/01/27 12:18:58;;;;;;;10.25;8.75;;;;;;;;;;5123695;28;20202;-61
2022/01/27 12:21:35;;;;;;;10.13;8.30;;;;;;;;;;5133943;28;20193;-61
2022/01/27 12:24:23;;;;;;;9.75;8.52;;;;;;;;;;5133845;28;20198;-61
2022/01/27 12:26:51;;;;;;;9.43;7.93;;;;;;;;;;5134498;28;20195;-61
2022/01/27 12:29:23;;;;;;;8.95;8.05;;;;;;;;;;5102208;28;20203;-62
2022/01/27 12:31:51;;;;;;;8.77;7.57;;;;;;;;;;5093429;28;20196;-61
2022/01/27 12:34:18;;;;;;;8.80;7.32;;;;;;;;;;5093635;28;20235;-61
2022/01/27 12:36:57;;;;;;;8.15;7.20;;;;;;;;;;5099509;28;20211;-62
2022/01/27 12:39:26;;;;;;;9.18;7.63;;;;;;;;;;5103209;28;20194;-61
2022/01/27 12:41:54;;;;;;;9.57;7.25;;;;;;;;;;5107792;28;20225;-61
2022/01/27 12:44:21;;;;;;;7.25;6.50;;;;;;;;;;5134110;28;20209;-61
2022/01/27 12:47:10;;;;;;;8.70;6.18;;;;;;;;;;5133612;27;20206;-61
2022/01/27 12:49:40;;;;;;;6.50;5.80;;;;;;;;;;5133320;27;20296;-61
2022/01/27 12:52:10;;;;;;;7.85;5.97;;;;;;;;;;5137060;27;20291;-61
2022/01/27 12:54:38;;;;;;;7.57;5.30;;;;;;;;;;5097260;28;20195;-61
2022/01/27 12:57:05;;;;;;;7.40;6.00;;;;;;;;;;5101911;27;20746;-61
2022/01/27 12:59:34;;;;;;;8.10;5.70;;;;;;;;;;5103154;27;20207;-62
2022/01/27 13:02:02;;;;;;;6.15;5.15;;;;;;;;;;5097007;27;20210;-61
2022/01/27 13:04:30;;;;;;;5.80;5.00;;;;;;;;;;5096789;27;20587;-61
2022/01/27 13:06:58;;;;;;;6.80;4.95;;;;;;;;;;5096902;28;20657;-61
2022/01/27 13:09:28;;;;;;;6.35;4.90;;;;;;;;;;5130779;27;20205;-61
2022/01/27 13:11:57;;;;;;;5.15;4.65;;;;;;;;;;5137200;27;20597;-61
2022/01/27 13:14:25;;;;;;;5.97;4.38;;;;;;;;;;5136656;27;20210;-61
2022/01/27 13:16:57;;;;;;;5.60;4.82;;;;;;;;;;5134405;27;20230;-61
2022/01/27 13:19:41;;;;;;;4.95;4.38;;;;;;;;;;5106301;27;20199;-61
2022/01/27 13:22:14;;;;;;;5.90;4.30;;;;;;;;;;5121470;27;20194;-61
2022/01/27 13:24:46;;;;;;;5.93;3.88;;;;;;;;;;5136177;27;20214;-61
2022/01/27 13:27:14;;;;;;;5.97;4.10;;;;;;;;;;5112852;27;20200;-61
2022/01/27 13:29:42;;;;;;;6.00;4.03;;;;;;;;;;5130434;27;20198;-61
2022/01/27 13:32:10;;;;;;;5.00;3.78;;;;;;;;;;5135812;27;20201;-61
2022/01/27 13:34:41;;;;;;;5.88;3.63;;;;;;;;;;5136808;27;20202;-61
2022/01/27 13:37:09;;;;;;;4.53;3.50;;;;;;;;;;5120303;27;20200;-61
2022/01/27 13:42:31;;;;;;;4.22;3.42;;;;;;;;;;5106918;27;20254;-61
2022/01/27 13:45:00;;;;;;;4.20;3.30;;;;;;;;;;5095735;28;20200;-62
2022/01/27 13:47:28;;;;;;;5.07;3.03;;;;;;;;;;5097240;27;20245;-61
2022/01/27 13:50:05;;;;;;;3.78;3.20;;;;;;;;;;5133991;27;20502;-61
2022/01/27 13:52:40;;;;;;;3.92;3.10;;;;;;;;;;5099512;27;20223;-62
2022/01/27 13:55:08;;;;;;;2.95;2.75;;;;;;;;;;5103256;27;20201;-61
2022/01/27 13:57:47;;;;;;;3.10;2.80;;;;;;;;;;5136088;27;20244;-62
2022/01/27 14:00:19;;;;;;;3.22;2.90;;;;;;;;;;5117761;27;20205;-62
2022/01/27 14:02:48;;;;;;;2.83;2.60;;;;;;;;;;5135453;27;20187;-61
2022/01/27 14:05:16;;;;;;;3.75;3.15;;;;;;;;;;5135901;27;20191;-62
2022/01/27 14:07:49;;;;;;;2.63;2.42;;;;;;;;;;5105519;27;20195;-61
2022/01/27 14:10:19;;;;;;;2.92;2.72;;;;;;;;;;5095226;28;20199;-61
2022/01/27 14:12:48;;;;;;;3.72;2.50;;;;;;;;;;5128716;27;20224;-62
2022/01/27 14:15:27;;;;;;;2.45;2.15;;;;;;;;;;5135543;27;20494;-62
2022/01/27 14:17:58;;;;;;;2.92;2.50;;;;;;;;;;5132323;27;20225;-62
2022/01/27 14:20:25;;;;;;;3.00;2.30;;;;;;;;;;5124232;27;20280;-62
2022/01/27 14:23:03;;;;;;;2.28;2.13;;;;;;;;;;5127759;27;20190;-62
2022/01/27 14:25:36;;;;;;;2.30;2.10;;;;;;;;;;5135878;27;20564;-62
2022/01/27 14:28:10;;;;;;;2.30;2.10;;;;;;;;;;5134982;27;20492;-62
2022/01/27 14:30:38;;;;;;;2.30;2.10;;;;;;;;;;5135579;27;20457;-62
2022/01/27 14:33:05;;;;;;;2.60;2.20;;;;;;;;;;5131418;27;20233;-62
2022/01/27 14:35:33;;;;;;;2.17;1.90;;;;;;;;;;5099128;27;20584;-61
2022/01/27 14:38:00;;;;;;;2.00;1.80;;;;;;;;;;5131068;27;20716;-61
2022/01/27 14:40:28;;;;;;;2.08;1.83;;;;;;;;;;5135727;27;20194;-61
2022/01/27 14:42:59;;;;;;;1.98;1.83;;;;;;;;;;5134928;27;20233;-62
2022/01/27 14:45:28;;;;;;;2.10;1.88;;;;;;;;;;5134972;27;20553;-62
2022/01/27 14:48:00;;;;;;;2.28;2.00;;;;;;;;;;5131781;27;20198;-62
2022/01/27 14:50:28;;;;;;;1.75;1.65;;;;;;;;;;5115715;27;20202;-61
2022/01/27 14:52:57;;;;;;;2.63;1.80;;;;;;;;;;5123859;27;20216;-61
2022/01/27 14:55:24;;;;;;;1.58;1.48;;;;;;;;;;5094295;28;20276;-61
2022/01/27 14:57:52;;;;;;;2.88;1.90;;;;;;;;;;5094507;28;20196;-61
2022/01/27 15:00:20;;;;;;;2.42;1.92;;;;;;;;;;5094974;28;20493;-61
2022/01/27 15:02:49;;;;;;;1.85;1.75;;;;;;;;;;5095050;28;20191;-62
2022/01/27 15:05:17;;;;;;;2.58;1.70;;;;;;;;;;5133563;27;20501;-62
2022/01/27 15:07:46;;;;;;;2.83;1.70;;;;;;;;;;5104348;27;20196;-62
2022/01/27 15:10:14;;;;;;;2.85;1.70;;;;;;;;;;5094270;28;20265;-62
2022/01/27 15:12:41;;;;;;;1.58;1.48;;;;;;;;;;5095111;28;20233;-62
2022/01/27 15:20:40;;;;;;;3.20;1.80;;;;;;;;;;5053857;28;20210;-62
2022/01/27 15:23:07;;;;;;;1.80;1.70;;;;;;;;;;5098099;27;20834;-62
2022/01/27 15:25:35;;;;;;;1.58;1.42;;;;;;;;;;5134514;27;20198;-62
2022/01/27 15:28:02;;;;;;;38.47;34.72;;;;;;;;;;5115056;27;20195;-62
2022/01/27 15:30:30;;;;;;;28.00;25.40;;;;;;;;;;5094072;28;20199;-62
2022/01/27 15:32:59;;;;;;;22.35;20.25;;;;;;;;;;5093646;28;20259;-61
2022/01/27 15:35:28;;;;;;;22.35;20.25;;;;;;;;;;5096756;28;20199;-61
2022/01/27 15:37:56;;;;;;;20.90;18.90;;;;;;;;;;5133670;28;20198;-61